Time;durP1;ratioP1;P1;durP2;ratioP2;P2;SDS_P1;SDS_P2;PMS_P1;PMS_P2;Temp;Humidity;BMP_temperature;BMP_pressure;BME280_temperature;BME280_humidity;BME280_pressure;Samples;Min_cycle;Max_cycle;Signal;HPM_P1;HPM_P2
2022/09/17 00:04:30;;;;;;;19.60;7.60;;;;;;;19.66;89.78;97541.00;5125922;28;20490;-96
2022/09/17 00:07:14;;;;;;;17.92;6.90;;;;;;;19.41;90.35;97542.19;5129630;28;20127;-96
2022/09/17 00:09:48;;;;;;;22.52;7.55;;;;;;;19.33;90.57;97541.13;5133104;28;20146;-96
2022/09/17 00:12:49;;;;;;;21.00;7.65;;;;;;;19.35;93.15;97542.69;5134518;28;20042;-96
2022/09/17 00:15:23;;;;;;;20.80;7.03;;;;;;;19.44;88.78;97536.53;5132738;28;20043;-96
2022/09/17 00:17:57;;;;;;;;;;;;;;;19.79;86.88;97573.22;5130731;28;20035;-96
2022/09/17 00:20:36;;;;;;;;;;;;;;;19.77;85.25;97569.81;5132940;28;19942;-96
2022/09/17 00:23:22;;;;;;;23.73;7.20;;;;;;;19.60;85.53;97535.25;5130918;28;19919;-96
2022/09/17 00:25:53;;;;;;;15.75;7.03;;;;;;;19.70;84.75;97563.22;5125403;28;20480;-96
2022/09/17 00:28:36;;;;;;;18.67;6.93;;;;;;;19.54;84.38;97527.69;5131165;28;20043;-96
2022/09/17 00:34:28;;;;;;;26.65;7.05;;;;;;;19.61;84.67;97547.78;5128938;28;20051;-96
2022/09/17 00:36:56;;;;;;;21.67;7.60;;;;;;;19.55;84.18;97526.72;5132083;28;20043;-96
2022/09/17 00:39:45;;;;;;;21.58;7.25;;;;;;;19.57;86.63;97524.75;5132294;28;20040;-96
2022/09/17 00:42:22;;;;;;;23.45;7.28;;;;;;;19.56;87.88;97517.63;5132042;28;20107;-96
2022/09/17 00:44:51;;;;;;;21.60;7.15;;;;;;;19.52;89.53;97521.56;5132137;28;20126;-96
2022/09/17 00:47:30;;;;;;;21.63;8.35;;;;;;;19.46;91.91;97525.63;5132886;28;20044;-96
2022/09/17 00:50:12;;;;;;;20.27;7.15;;;;;;;19.43;93.43;97517.78;5132826;28;20153;-96
2022/09/17 00:53:04;;;;;;;17.40;6.90;;;;;;;19.31;94.89;97508.91;5132401;28;20062;-96
2022/09/17 00:55:49;;;;;;;17.52;7.07;;;;;;;19.36;94.05;97544.41;5131695;28;20126;-96
2022/09/17 00:58:25;;;;;;;22.90;7.35;;;;;;;19.21;93.96;97524.09;5132394;28;20039;-96
2022/09/17 01:00:51;;;;;;;30.08;8.23;;;;;;;19.23;93.06;97528.38;5131262;28;20046;-96
2022/09/17 01:03:18;;;;;;;22.55;9.38;;;;;;;18.96;93.07;97491.09;5129046;28;20044;-96
2022/09/17 01:06:09;;;;;;;23.13;7.70;;;;;;;18.84;94.43;97481.31;5131035;28;20076;-95
2022/09/17 01:09:05;;;;;;;20.48;7.60;;;;;;;19.04;95.47;97536.25;5133581;28;20059;-96
2022/09/17 01:12:18;;;;;;;17.83;7.03;;;;;;;18.75;96.06;97488.28;5134365;28;20035;-96
2022/09/17 01:15:01;;;;;;;20.42;7.13;;;;;;;18.85;97.28;97499.19;5117408;28;20101;-96
2022/09/17 01:17:34;;;;;;;19.83;7.15;;;;;;;18.89;98.16;97495.28;5136583;28;20126;-95
2022/09/17 01:20:35;;;;;;;17.45;6.35;;;;;;;18.78;98.24;97461.13;5137062;28;20049;-96
2022/09/17 01:23:33;;;;;;;22.35;8.23;;;;;;;19.00;99.36;97494.41;5136372;28;20051;-96
2022/09/17 01:26:21;;;;;;;22.43;7.37;;;;;;;18.70;100.00;97452.78;5136613;28;20091;-96
2022/09/17 01:29:02;;;;;;;25.17;9.07;;;;;;;18.70;100.00;97454.63;5137609;28;20385;-96
2022/09/17 01:32:08;;;;;;;24.25;7.30;;;;;;;18.70;99.56;97454.63;5137720;28;20054;-96
2022/09/17 01:34:53;;;;;;;24.58;8.07;;;;;;;18.76;99.66;97470.25;5137202;28;20492;-96
2022/09/17 01:37:58;;;;;;;20.52;7.75;;;;;;;18.94;100.00;97505.69;5137767;28;20043;-96
2022/09/17 01:41:13;;;;;;;20.52;8.40;;;;;;;18.87;99.68;97494.56;5137647;28;20035;-96
2022/09/17 01:48:12;;;;;;;20.48;7.50;;;;;;;18.75;93.32;97450.56;5137206;28;20043;-96
2022/09/17 01:51:26;;;;;;;17.02;6.97;;;;;;;18.73;90.69;97451.69;5084707;28;20044;-96
2022/09/17 01:54:03;;;;;;;18.52;7.20;;;;;;;18.65;92.24;97453.16;5092122;28;20079;-96
2022/09/17 01:57:00;;;;;;;20.15;8.07;;;;;;;18.59;92.05;97455.50;5093752;28;20045;-96
2022/09/17 02:03:14;;;;;;;24.30;8.38;;;;;;;18.63;92.76;97463.19;5076096;28;20047;-96
2022/09/17 02:05:52;;;;;;;23.75;7.75;;;;;;;18.85;92.82;97493.81;5112337;28;20048;-95
2022/09/17 02:08:30;;;;;;;19.05;7.47;;;;;;;18.61;93.28;97446.31;5129271;27;20047;-96
2022/09/17 02:14:38;;;;;;;26.98;8.05;;;;;;;18.60;91.41;97431.13;5039006;28;20049;-96
2022/09/17 02:17:16;;;;;;;17.70;7.30;;;;;;;18.54;91.20;97420.00;5050260;28;20549;-96
2022/09/17 02:19:48;;;;;;;24.50;8.40;;;;;;;18.72;92.20;97460.75;5050945;28;20037;-96
2022/09/17 02:22:25;;;;;;;21.95;7.80;;;;;;;18.49;93.04;97428.44;5050778;28;20209;-96
2022/09/17 02:28:05;;;;;;;19.60;8.70;;;;;;;18.41;93.41;97430.91;5051733;28;20042;-96
2022/09/17 02:30:45;;;;;;;22.45;8.27;;;;;;;18.27;94.26;97429.31;5051713;28;20049;-96
2022/09/17 02:33:14;;;;;;;26.77;8.48;;;;;;;18.49;94.89;97449.97;5051428;28;20069;-96
2022/09/17 02:35:52;;;;;;;22.45;8.82;;;;;;;18.30;95.32;97417.44;5050165;28;20161;-96
2022/09/17 02:38:23;;;;;;;20.98;7.97;;;;;;;18.17;92.53;97410.38;5050520;28;20056;-96
2022/09/17 02:47:43;;;;;;;16.35;7.18;;;;;;;18.18;93.89;97420.16;5051621;28;20037;-96
2022/09/17 02:50:40;;;;;;;23.20;8.00;;;;;;;18.39;93.62;97452.56;5055035;27;20118;-96
2022/09/17 02:53:23;;;;;;;20.33;8.48;;;;;;;18.37;94.32;97449.16;5152559;27;20096;-95
2022/09/17 02:55:59;;;;;;;22.52;8.40;;;;;;;18.22;95.16;97410.00;5152966;27;20031;-95
2022/09/17 02:58:36;;;;;;;22.63;8.70;;;;;;;18.18;95.28;97397.78;5151613;27;20050;-96
2022/09/17 03:01:07;;;;;;;22.05;8.73;;;;;;;18.31;95.14;97400.34;5152848;27;20051;-96
2022/09/17 03:03:37;;;;;;;18.13;7.55;;;;;;;18.05;94.38;97387.13;5150110;27;20078;-96
2022/09/17 03:06:05;;;;;;;23.17;7.90;;;;;;;18.04;94.19;97386.28;5150587;27;20047;-96
2022/09/17 03:08:37;;;;;;;21.88;8.57;;;;;;;18.25;94.81;97412.44;5151056;27;20051;-96
2022/09/17 03:11:04;;;;;;;18.67;7.30;;;;;;;18.11;95.24;97388.47;5151938;27;20039;-96
2022/09/17 03:13:33;;;;;;;20.15;7.88;;;;;;;18.20;95.20;97401.22;5151926;27;20047;-96
2022/09/17 03:16:02;;;;;;;22.60;8.13;;;;;;;18.13;95.95;97392.78;5149256;27;20039;-95
2022/09/17 03:18:34;;;;;;;22.40;7.43;;;;;;;18.42;97.21;97416.47;5151954;27;20039;-95
2022/09/17 03:21:00;;;;;;;22.67;7.95;;;;;;;18.22;96.04;97381.25;5150355;27;20100;-96
2022/09/17 03:23:27;;;;;;;20.30;8.15;;;;;;;18.17;95.48;97378.09;5151237;27;20047;-96
2022/09/17 03:25:56;;;;;;;23.70;7.55;;;;;;;18.14;95.37;97370.25;5150537;27;20039;-96
2022/09/17 03:28:24;;;;;;;24.30;7.90;;;;;;;18.19;96.05;97369.88;5149891;27;20063;-96
2022/09/17 03:30:53;;;;;;;21.42;7.57;;;;;;;18.15;94.82;97358.53;5151132;27;20039;-96
2022/09/17 03:33:21;;;;;;;20.00;8.02;;;;;;;18.09;95.17;97358.16;5151455;27;20397;-96
2022/09/17 03:35:53;;;;;;;21.75;8.07;;;;;;;18.00;95.53;97347.16;5150100;27;20047;-95
2022/09/17 03:38:20;;;;;;;20.10;7.13;;;;;;;18.28;96.05;97390.66;5149816;27;20043;-95
2022/09/17 03:41:02;;;;;;;20.75;8.02;;;;;;;17.96;95.80;97358.28;5150995;27;20038;-95
2022/09/17 03:43:40;;;;;;;17.48;6.82;;;;;;;18.13;96.67;97378.44;5153101;27;20185;-96
2022/09/17 03:46:18;;;;;;;20.83;7.82;;;;;;;18.19;96.53;97369.88;5153255;27;20110;-96
2022/09/17 03:48:50;;;;;;;19.98;7.43;;;;;;;18.29;95.10;97372.69;5154840;27;20027;-96
2022/09/17 03:51:16;;;;;;;18.58;7.70;;;;;;;18.05;97.02;97338.72;5150871;27;20169;-95
2022/09/17 03:53:46;;;;;;;18.60;8.38;;;;;;;18.03;97.02;97346.06;5149773;27;20081;-96
2022/09/17 03:56:16;;;;;;;19.60;7.95;;;;;;;18.09;96.56;97345.56;5150054;27;20031;-95
2022/09/17 03:58:45;;;;;;;25.05;8.65;;;;;;;18.14;96.10;97359.50;5151249;27;20099;-96
2022/09/17 04:01:13;;;;;;;20.55;7.57;;;;;;;17.97;95.98;97325.88;5150497;27;20047;-96
2022/09/17 04:03:40;;;;;;;29.35;7.75;;;;;;;17.88;97.54;97328.44;5150660;27;20054;-96
2022/09/17 04:06:18;;;;;;;19.10;7.85;;;;;;;17.88;99.94;97329.31;5149881;27;20051;-96
2022/09/17 04:08:51;;;;;;;18.83;7.65;;;;;;;18.12;99.84;97358.75;5155214;28;20047;-96
2022/09/17 04:14:44;;;;;;;28.90;8.20;;;;;;;18.12;99.45;97358.75;5149333;28;20039;-96
2022/09/17 04:17:11;;;;;;;25.27;8.10;;;;;;;17.72;100.00;97318.00;5144412;28;20383;-95
2022/09/17 04:19:37;;;;;;;23.25;7.75;;;;;;;17.57;100.00;97320.09;5145780;28;20047;-94
2022/09/17 04:22:03;;;;;;;20.17;7.68;;;;;;;17.67;100.00;97342.56;5147476;28;20069;-95
2022/09/17 04:24:29;;;;;;;18.88;7.65;;;;;;;17.78;100.00;97334.53;5143726;28;20043;-96
2022/09/17 04:26:55;;;;;;;24.45;7.97;;;;;;;17.63;100.00;97303.47;5142949;28;20054;-94
2022/09/17 04:29:21;;;;;;;23.30;8.30;;;;;;;17.68;100.00;97303.13;5140066;28;20109;-96
2022/09/17 04:31:49;;;;;;;21.80;8.18;;;;;;;17.66;100.00;97292.50;5140235;28;20043;-94
2022/09/17 04:34:14;;;;;;;20.92;8.88;;;;;;;17.67;100.00;97283.44;5140043;28;20043;-94
2022/09/17 04:36:40;;;;;;;19.35;8.00;;;;;;;17.72;100.00;97280.38;5139054;28;20057;-96
2022/09/17 04:39:08;;;;;;;20.98;8.13;;;;;;;17.79;100.00;97289.69;5137987;28;20043;-95
2022/09/17 04:41:34;;;;;;;26.60;7.97;;;;;;;17.81;100.00;97283.19;5141529;28;20101;-95
2022/09/17 04:44:03;;;;;;;19.55;9.02;;;;;;;17.75;100.00;97270.25;5140568;28;20039;-94
2022/09/17 04:46:29;;;;;;;17.98;8.30;;;;;;;17.84;100.00;97266.84;5140597;28;20043;-96
2022/09/17 04:48:56;;;;;;;25.60;8.70;;;;;;;18.07;100.00;97301.78;5143872;27;20047;-95
2022/09/17 04:51:22;;;;;;;18.95;8.15;;;;;;;17.90;100.00;97257.44;5144736;27;20046;-95
2022/09/17 04:53:48;;;;;;;22.92;8.57;;;;;;;17.86;100.00;97250.59;5146062;27;20043;-96
2022/09/17 04:56:14;;;;;;;16.67;8.30;;;;;;;17.86;100.00;97255.97;5145226;27;20039;-95
2022/09/17 04:58:40;;;;;;;21.67;8.60;;;;;;;17.91;100.00;97263.66;5148832;27;20051;-95
2022/09/17 05:01:07;;;;;;;25.88;8.85;;;;;;;17.84;100.00;97257.91;5150067;27;20043;-96
2022/09/17 05:03:33;;;;;;;22.38;8.98;;;;;;;17.91;100.00;97264.50;5147960;27;20103;-96
2022/09/17 05:06:01;;;;;;;27.27;9.05;;;;;;;17.93;100.00;97250.94;5152395;27;20188;-96
2022/09/17 05:08:27;;;;;;;19.23;8.60;;;;;;;17.93;100.00;97246.41;5154319;27;20065;-96
2022/09/17 05:11:03;;;;;;;20.50;8.30;;;;;;;18.00;100.00;97261.09;5152889;27;20047;-95
2022/09/17 05:13:29;;;;;;;21.70;8.88;;;;;;;17.90;100.00;97259.28;5156340;27;20046;-96
2022/09/17 05:15:56;;;;;;;21.17;8.75;;;;;;;17.88;100.00;97274.66;5151548;27;20062;-96
2022/09/17 05:18:25;;;;;;;20.52;8.80;;;;;;;17.82;100.00;97258.03;5152439;27;20050;-96
2022/09/17 05:20:51;;;;;;;20.92;8.95;;;;;;;17.94;100.00;97249.97;5151870;27;20047;-96
2022/09/17 05:23:21;;;;;;;23.13;8.63;;;;;;;18.06;100.00;97263.28;5149569;27;20036;-96
2022/09/17 05:25:51;;;;;;;21.80;8.50;;;;;;;18.39;100.00;97300.97;5151122;27;20043;-96
2022/09/17 05:28:17;;;;;;;21.52;8.00;;;;;;;18.24;100.00;97268.13;5147751;27;20043;-94
2022/09/17 05:30:43;;;;;;;22.92;9.07;;;;;;;18.27;100.00;97265.19;5151671;27;20047;-94
2022/09/17 05:33:19;;;;;;;28.52;9.38;;;;;;;18.24;100.00;97266.28;5150401;27;20050;-96
2022/09/17 05:35:49;;;;;;;21.27;8.38;;;;;;;18.33;100.00;97269.22;5152366;27;20078;-96
2022/09/17 05:38:17;;;;;;;19.23;7.88;;;;;;;18.48;100.00;97276.00;5147782;27;20035;-96
2022/09/17 05:40:45;;;;;;;30.07;9.03;;;;;;;18.54;100.00;97269.25;5147802;27;20073;-96
2022/09/17 05:43:12;;;;;;;23.15;8.88;;;;;;;18.59;100.00;97269.75;5147994;27;20434;-96
2022/09/17 05:45:38;;;;;;;24.77;8.73;;;;;;;18.58;100.00;97270.69;5151819;27;20043;-96
2022/09/17 05:48:08;;;;;;;23.85;8.85;;;;;;;18.71;100.00;97275.91;5149101;27;20047;-96
2022/09/17 05:50:34;;;;;;;30.30;9.85;;;;;;;18.91;100.00;97290.41;5146848;27;20047;-96
2022/09/17 05:53:04;;;;;;;23.35;8.77;;;;;;;19.22;100.00;97304.84;5144798;27;20046;-95
2022/09/17 05:55:30;;;;;;;27.67;10.00;;;;;;;19.41;100.00;97282.53;5159982;27;20053;-94
2022/09/17 05:57:58;;;;;;;20.10;8.45;;;;;;;19.50;100.00;97276.34;5150973;27;20047;-96
2022/09/17 06:00:24;;;;;;;19.30;8.23;;;;;;;19.68;100.00;97296.31;5142583;27;20490;-94
2022/09/17 06:02:54;;;;;;;29.60;8.68;;;;;;;19.77;99.42;97302.75;5152956;27;20096;-93
2022/09/17 06:05:23;;;;;;;26.83;8.73;;;;;;;19.76;98.23;97294.81;5156360;27;20071;-93
2022/09/17 06:07:49;;;;;;;27.38;8.63;;;;;;;19.88;97.35;97321.53;5140373;27;20047;-94
2022/09/17 06:10:15;;;;;;;21.30;8.30;;;;;;;19.89;97.43;97322.44;5144047;27;20061;-94
2022/09/17 06:12:41;;;;;;;21.67;9.55;;;;;;;19.92;98.51;97313.19;5153441;27;20506;-94
2022/09/17 06:15:11;;;;;;;24.42;8.85;;;;;;;19.86;98.75;97304.66;5149914;27;20035;-91
2022/09/17 06:17:37;;;;;;;21.33;9.38;;;;;;;19.80;100.00;97298.94;5152698;27;20179;-93
2022/09/17 06:20:05;;;;;;;22.50;9.10;;;;;;;19.88;100.00;97313.44;5143296;27;20087;-92
2022/09/17 06:22:31;;;;;;;25.40;9.48;;;;;;;19.81;100.00;97301.50;5146409;27;20035;-94
2022/09/17 06:24:58;;;;;;;27.88;9.27;;;;;;;19.78;99.97;97274.81;5146424;27;20065;-94
2022/09/17 06:27:29;;;;;;;30.88;10.80;;;;;;;19.94;98.89;97295.88;5139913;27;20065;-94
2022/09/17 06:29:55;;;;;;;23.92;9.20;;;;;;;20.11;98.14;97307.88;5149283;27;20130;-91
2022/09/17 06:32:23;;;;;;;26.70;10.07;;;;;;;20.20;97.76;97311.59;5144997;27;20555;-93
2022/09/17 06:34:49;;;;;;;26.17;10.18;;;;;;;20.38;96.99;97292.88;5145361;27;20043;-91
2022/09/17 06:37:15;;;;;;;23.63;10.15;;;;;;;20.55;95.45;97285.94;5145158;27;20590;-91
2022/09/17 06:39:41;;;;;;;26.27;9.15;;;;;;;20.70;92.18;97293.53;5145611;27;20024;-93
2022/09/17 06:42:07;;;;;;;22.73;9.70;;;;;;;20.75;91.53;97293.09;5143242;27;20522;-93
2022/09/17 06:44:32;;;;;;;24.80;8.88;;;;;;;20.83;89.93;97295.94;5148480;27;20038;-93
2022/09/17 06:46:58;;;;;;;23.98;10.95;;;;;;;20.93;88.90;97274.34;5142627;27;20038;-90
2022/09/17 06:49:26;;;;;;;25.58;9.75;;;;;;;20.97;87.17;97286.56;5145268;27;20397;-94
2022/09/17 06:51:51;;;;;;;29.02;9.75;;;;;;;20.98;89.26;97284.72;5142798;27;20059;-93
2022/09/17 06:54:17;;;;;;;29.27;9.32;;;;;;;21.20;89.13;97300.63;5144991;27;20034;-91
2022/09/17 06:56:45;;;;;;;32.55;9.95;;;;;;;21.33;88.00;97289.50;5143406;27;20034;-91
2022/09/17 06:59:10;;;;;;;28.20;8.80;;;;;;;21.44;85.86;97283.94;5142017;27;20100;-92
2022/09/17 07:01:36;;;;;;;36.35;10.13;;;;;;;21.61;85.85;97295.88;5148201;27;20035;-89
2022/09/17 07:04:02;;;;;;;35.65;9.80;;;;;;;21.56;85.98;97272.97;5147993;27;20047;-93
2022/09/17 07:06:30;;;;;;;26.85;9.65;;;;;;;21.53;85.01;97266.88;5139641;27;20093;-92
2022/09/17 07:08:57;;;;;;;35.90;9.57;;;;;;;21.44;85.78;97251.50;5152675;27;20042;-93
2022/09/17 07:11:23;;;;;;;25.95;8.80;;;;;;;21.56;84.68;97270.25;5139531;27;20038;-94
2022/09/17 07:13:49;;;;;;;29.77;9.73;;;;;;;21.54;84.30;97251.50;5150304;27;20063;-93
2022/09/17 07:16:15;;;;;;;27.23;8.77;;;;;;;21.68;85.42;97269.09;5140613;27;20047;-92
2022/09/17 07:18:42;;;;;;;21.27;8.77;;;;;;;21.71;83.82;97249.88;5153029;27;20035;-95
2022/09/17 07:21:09;;;;;;;24.27;8.02;;;;;;;21.96;84.14;97259.13;5139090;27;20035;-94
2022/09/17 07:23:37;;;;;;;26.40;9.00;;;;;;;22.05;82.50;97249.25;5138064;27;20091;-93
2022/09/17 07:26:05;;;;;;;21.10;8.38;;;;;;;22.11;81.45;97227.84;5149610;27;20051;-94
2022/09/17 07:28:31;;;;;;;;;;;;;;;22.53;79.59;97261.66;5141895;27;20092;-95
2022/09/17 07:30:57;;;;;;;22.00;8.10;;;;;;;22.63;80.42;97251.63;5141802;27;19919;-94
2022/09/17 07:33:26;;;;;;;28.85;8.70;;;;;;;22.62;77.07;97230.09;5141363;27;20047;-93
2022/09/17 07:35:53;;;;;;;28.95;8.80;;;;;;;22.42;79.02;97226.69;5160011;27;20043;-95
2022/09/17 07:38:19;;;;;;;21.92;8.35;;;;;;;22.37;81.00;97224.44;5145775;27;20039;-94
2022/09/17 07:40:54;;;;;;;27.30;8.52;;;;;;;22.33;80.62;97226.59;5141168;27;20054;-94
2022/09/17 07:43:20;;;;;;;26.00;9.40;;;;;;;22.39;81.12;97243.25;5141566;27;20050;-94
2022/09/17 07:45:46;;;;;;;26.80;8.75;;;;;;;22.06;80.82;97210.38;5142377;27;20099;-94
2022/09/17 07:48:12;;;;;;;32.97;9.80;;;;;;;22.00;82.32;97225.34;5141536;27;20066;-94
2022/09/17 07:50:38;;;;;;;25.27;8.85;;;;;;;22.10;84.54;97225.31;5148812;27;20034;-94
2022/09/17 07:53:04;;;;;;;39.55;9.40;;;;;;;22.23;84.71;97228.53;5159114;27;20038;-93
2022/09/17 07:55:33;;;;;;;27.33;9.95;;;;;;;22.07;84.23;97209.34;5151980;27;20062;-94
2022/09/17 07:58:00;;;;;;;27.13;8.63;;;;;;;22.01;83.40;97207.25;5156564;27;20039;-95
2022/09/17 08:00:26;;;;;;;30.37;8.27;;;;;;;21.98;80.69;97202.16;5139181;27;20049;-94
2022/09/17 08:02:56;;;;;;;21.00;7.82;;;;;;;21.94;80.34;97202.44;5151492;27;20051;-95
2022/09/17 08:05:23;;;;;;;19.08;7.88;;;;;;;21.88;80.46;97204.91;5147334;27;20038;-93
2022/09/17 08:07:52;;;;;;;23.02;8.38;;;;;;;22.07;80.69;97217.47;5149047;27;20051;-91
2022/09/17 08:10:21;;;;;;;;;;;;;;;22.45;79.49;97235.38;5139322;28;20043;-95
2022/09/17 08:12:52;;;;;;;27.40;8.55;;;;;;;22.48;78.41;97190.88;5138799;27;19927;-93
2022/09/17 08:15:19;;;;;;;26.83;8.20;;;;;;;22.84;76.24;97218.78;5138277;28;20081;-94
2022/09/17 08:17:48;;;;;;;26.00;7.43;;;;;;;22.98;73.76;97196.53;5139558;27;20039;-95
2022/09/17 08:20:15;;;;;;;25.42;7.38;;;;;;;23.16;73.14;97198.38;5141426;27;20377;-94
2022/09/17 08:22:41;;;;;;;22.60;8.38;;;;;;;23.40;72.24;97200.41;5140925;27;20039;-94
2022/09/17 08:25:09;;;;;;;21.02;7.72;;;;;;;24.13;71.65;97218.06;5144790;27;20043;-95
2022/09/17 08:27:37;;;;;;;18.98;7.32;;;;;;;24.63;68.68;97214.47;5153384;27;20367;-94
2022/09/17 08:30:05;;;;;;;;;;;;;;;24.53;66.42;97224.66;5144869;27;20043;-94
2022/09/17 08:32:33;;;;;;;23.67;7.28;;;;;;;24.31;66.78;97217.94;5120927;28;19915;-94
2022/09/17 08:35:02;;;;;;;19.80;7.65;;;;;;;24.53;66.17;97176.59;5141498;27;20056;-94
2022/09/17 08:37:29;;;;;;;;;;;;;;;24.53;66.29;97197.50;5150167;27;20134;-95
2022/09/17 08:39:58;;;;;;;24.87;6.83;;;;;;;24.14;65.59;97149.16;5155856;27;19919;-93
2022/09/17 08:42:33;;;;;;;22.73;7.80;;;;;;;24.05;66.22;97142.00;5159425;27;20047;-94
2022/09/17 08:45:05;;;;;;;21.40;7.45;;;;;;;24.27;66.02;97168.53;5140374;27;20074;-95
2022/09/17 08:47:42;;;;;;;26.73;7.35;;;;;;;24.37;63.92;97139.34;5141151;27;20047;-95
2022/09/17 08:50:18;;;;;;;19.42;7.05;;;;;;;24.39;64.35;97156.31;5142089;27;20496;-95
2022/09/17 08:53:19;;;;;;;20.75;7.50;;;;;;;24.51;63.90;97175.06;5142281;27;20077;-95
2022/09/17 08:55:49;;;;;;;17.90;6.70;;;;;;;24.21;64.24;97150.19;5147415;27;20065;-94
2022/09/17 08:58:34;;;;;;;20.30;6.30;;;;;;;24.48;63.43;97137.31;5142590;27;20369;-92
2022/09/17 09:01:13;;;;;;;16.17;6.65;;;;;;;24.90;62.29;97137.16;5152735;27;20043;-94
2022/09/17 09:03:54;;;;;;;18.35;7.57;;;;;;;25.29;60.40;97166.38;5150616;27;20098;-92
2022/09/17 09:06:26;;;;;;;18.88;6.43;;;;;;;25.49;58.43;97145.06;5151189;27;20508;-92
2022/09/17 09:08:58;;;;;;;13.52;6.65;;;;;;;25.21;60.12;97152.78;5147482;27;20039;-92
2022/09/17 09:11:27;;;;;;;22.80;7.35;;;;;;;25.10;61.47;97153.13;5154476;27;20061;-94
2022/09/17 09:13:57;;;;;;;15.95;6.72;;;;;;;25.15;59.78;97140.69;5149724;27;20048;-93
2022/09/17 09:16:26;;;;;;;15.48;6.70;;;;;;;25.07;59.82;97123.53;5136661;27;20112;-92
2022/09/17 09:18:55;;;;;;;17.77;6.38;;;;;;;25.06;57.95;97157.22;5148216;27;20050;-90
2022/09/17 09:21:26;;;;;;;15.25;6.55;;;;;;;25.29;54.70;97151.94;5145327;27;20051;-95
2022/09/17 09:23:57;;;;;;;17.58;6.32;;;;;;;24.94;55.00;97179.31;5150028;27;20042;-94
2022/09/17 09:26:40;;;;;;;15.23;6.30;;;;;;;24.56;57.09;97195.25;5149056;27;20043;-91
2022/09/17 09:29:16;;;;;;;11.82;5.78;;;;;;;24.26;58.50;97185.84;5155153;27;20045;-92
2022/09/17 09:32:06;;;;;;;17.02;6.80;;;;;;;23.56;63.52;97276.47;5146225;27;20039;-90
2022/09/17 09:34:36;;;;;;;17.95;7.22;;;;;;;21.54;73.07;97251.50;5144120;27;20053;-91
2022/09/17 09:37:13;;;;;;;14.70;6.95;;;;;;;21.08;79.33;97253.13;5143907;27;20043;-95
2022/09/17 09:39:43;;;;;;;24.00;8.02;;;;;;;20.67;81.02;97245.19;5153412;27;20049;-94
2022/09/17 09:42:15;;;;;;;19.88;7.63;;;;;;;20.83;81.36;97251.88;5151838;27;20385;-95
2022/09/17 09:44:41;;;;;;;16.95;8.40;;;;;;;21.09;80.90;97295.38;5143200;27;20092;-91
2022/09/17 09:47:23;;;;;;;20.10;8.00;;;;;;;20.80;81.58;97277.31;5138591;27;20114;-93
2022/09/17 09:50:07;;;;;;;20.63;7.60;;;;;;;20.63;80.95;97296.94;5141023;27;20035;-90
2022/09/17 09:52:47;;;;;;;19.00;8.10;;;;;;;20.69;81.29;97299.94;5140536;27;20035;-93
2022/09/17 09:55:29;;;;;;;19.25;7.43;;;;;;;20.78;80.11;97305.50;5140605;27;20105;-91
2022/09/17 09:58:00;;;;;;;19.20;7.78;;;;;;;21.09;79.04;97295.38;5141753;27;20043;-96
2022/09/17 10:00:29;;;;;;;18.60;7.95;;;;;;;21.66;78.49;97312.50;5121334;28;20043;-96
2022/09/17 10:03:02;;;;;;;17.63;8.10;;;;;;;21.57;77.82;97266.56;5141913;27;20043;-96
2022/09/17 10:05:29;;;;;;;21.52;8.15;;;;;;;22.02;74.95;97285.59;5153525;27;20046;-94
2022/09/17 10:07:56;;;;;;;22.13;9.25;;;;;;;22.30;72.66;97302.75;5146509;27;20035;-94
2022/09/17 10:10:22;;;;;;;20.33;8.68;;;;;;;22.45;70.72;97296.81;5155512;27;20057;-95
2022/09/17 10:13:04;;;;;;;24.83;9.30;;;;;;;22.33;68.85;97296.16;5149071;27;21387;-95
2022/09/17 10:15:31;;;;;;;22.73;7.88;;;;;;;22.94;68.86;97330.72;5137202;27;20047;-94
2022/09/17 10:18:12;;;;;;;21.60;7.72;;;;;;;23.15;64.71;97346.66;5170271;27;20038;-94
2022/09/17 10:20:56;;;;;;;19.05;7.07;;;;;;;23.31;63.34;97331.56;5147432;27;20043;-94
2022/09/17 10:23:25;;;;;;;21.63;7.18;;;;;;;23.41;64.11;97359.44;5145263;27;20039;-96
2022/09/17 10:25:54;;;;;;;11.70;5.47;;;;;;;21.63;62.73;97376.91;5144348;27;20047;-96
2022/09/17 10:28:33;;;;;;;7.35;3.00;;;;;;;19.92;60.15;97392.28;5154749;27;20035;-93
2022/09/17 10:31:03;;;;;;;6.03;2.58;;;;;;;18.91;63.64;97384.69;5153078;27;20065;-93
2022/09/17 10:33:31;;;;;;;4.55;1.92;;;;;;;18.90;60.76;97401.84;5143647;27;20039;-95
2022/09/17 10:36:03;;;;;;;4.45;1.50;;;;;;;17.79;60.97;97386.47;5145819;27;20039;-94
2022/09/17 10:38:34;;;;;;;5.72;1.40;;;;;;;18.16;58.02;97419.41;5162432;27;20058;-94
2022/09/17 10:41:11;;;;;;;;;;;;;;;17.98;60.66;97412.81;5160893;27;20038;-95
2022/09/17 10:43:40;;;;;;;3.20;1.13;;;;;;;17.34;58.92;97415.94;5131616;27;19915;-95
2022/09/17 10:46:16;;;;;;;4.22;1.13;;;;;;;17.05;60.67;97432.44;5152668;27;20058;-95
2022/09/17 10:48:45;;;;;;;3.75;1.02;;;;;;;17.07;58.43;97410.81;5158670;27;20102;-93
2022/09/17 10:51:22;;;;;;;5.53;1.25;;;;;;;16.36;60.83;97434.78;5160811;27;20035;-94
2022/09/17 10:54:05;;;;;;;1.50;0.85;;;;;;;16.59;62.52;97447.38;5157735;27;20051;-96
2022/09/17 10:56:35;;;;;;;4.78;0.80;;;;;;;16.45;61.44;97479.72;5155541;27;20063;-95
2022/09/17 10:59:21;;;;;;;4.95;0.98;;;;;;;16.21;61.23;97469.75;5143714;27;20042;-94
2022/09/17 11:01:59;;;;;;;1.42;0.80;;;;;;;16.71;61.56;97510.03;5163986;27;20050;-94
2022/09/17 11:04:42;;;;;;;2.15;0.55;;;;;;;16.74;61.72;97498.22;5145061;27;20546;-94
2022/09/17 11:07:41;;;;;;;1.30;0.80;;;;;;;17.27;61.79;97538.28;5144546;27;20130;-95
2022/09/17 11:10:15;;;;;;;4.57;0.80;;;;;;;16.72;61.08;97527.00;5141404;27;20100;-95
2022/09/17 11:13:05;;;;;;;6.03;0.73;;;;;;;16.80;61.58;97500.50;5152382;27;20064;-96
2022/09/17 11:15:46;;;;;;;2.88;0.90;;;;;;;16.64;59.86;97498.03;5164729;27;20053;-94
2022/09/17 11:18:29;;;;;;;3.15;0.80;;;;;;;16.51;60.97;97521.38;5142756;27;20050;-95
2022/09/17 11:21:20;;;;;;;1.52;0.80;;;;;;;16.42;60.62;97522.88;5152224;27;20043;-95
2022/09/17 11:24:27;;;;;;;1.58;0.70;;;;;;;16.54;60.21;97578.34;5143175;27;20082;-93
2022/09/17 11:27:07;;;;;;;2.30;0.73;;;;;;;16.20;59.11;97575.34;5127810;27;20062;-95
2022/09/17 11:29:57;;;;;;;0.50;0.50;;;;;;;16.52;58.26;97606.25;5138813;27;20039;-94
2022/09/17 11:32:44;;;;;;;0.98;0.60;;;;;;;16.19;58.30;97564.72;5151794;27;20047;-96
2022/09/17 11:35:15;;;;;;;3.50;0.60;;;;;;;16.37;56.87;97575.97;5140839;27;20047;-92
2022/09/17 11:37:47;;;;;;;2.40;0.90;;;;;;;16.15;57.71;97596.22;5140640;27;20037;-94
2022/09/17 11:40:21;;;;;;;1.85;0.60;;;;;;;16.06;57.03;97585.28;5138518;27;20054;-91
2022/09/17 11:42:53;;;;;;;4.07;0.80;;;;;;;16.03;57.54;97554.19;5137093;27;20496;-94
2022/09/17 11:45:24;;;;;;;2.08;0.70;;;;;;;15.79;56.86;97570.13;5142911;27;20419;-95
2022/09/17 11:47:55;;;;;;;1.77;0.65;;;;;;;15.06;59.45;97610.59;5159525;27;20053;-93
2022/09/17 11:50:26;;;;;;;1.20;0.55;;;;;;;15.14;59.74;97605.63;5143803;27;20515;-94
2022/09/17 11:53:03;;;;;;;1.48;0.52;;;;;;;15.20;60.13;97629.31;5147136;27;20111;-94
2022/09/17 11:55:37;;;;;;;0.60;0.60;;;;;;;14.99;60.21;97648.47;5157390;27;20133;-94
2022/09/17 11:58:14;;;;;;;4.10;0.88;;;;;;;14.95;60.58;97670.19;5144547;27;20039;-94
2022/09/17 12:00:49;;;;;;;0.55;0.55;;;;;;;15.03;61.12;97702.69;5144674;27;20043;-91
2022/09/17 12:03:25;;;;;;;0.80;0.80;;;;;;;15.32;60.95;97695.50;5147868;27;20066;-95
2022/09/17 12:05:55;;;;;;;0.88;0.70;;;;;;;15.17;59.95;97667.84;5160059;27;20051;-93
2022/09/17 12:08:53;;;;;;;0.73;0.73;;;;;;;15.63;59.52;97725.69;5120242;27;20387;-95
2022/09/17 12:11:25;;;;;;;2.25;0.77;;;;;;;15.31;60.77;97742.00;5118502;28;20108;-94
2022/09/17 12:13:56;;;;;;;1.85;1.02;;;;;;;14.81;62.08;97688.91;5118818;28;20060;-95
2022/09/17 12:16:25;;;;;;;1.08;0.98;;;;;;;14.73;62.14;97708.13;5123215;28;20104;-96
2022/09/17 12:18:55;;;;;;;;;;;;;;;14.98;62.74;97761.88;5123249;28;20031;-95
2022/09/17 12:21:27;;;;;;;0.60;0.60;;;;;;;14.46;62.37;97711.44;5121237;28;19920;-94
2022/09/17 12:24:02;;;;;;;0.90;0.90;;;;;;;14.41;62.69;97755.47;5123583;28;20047;-94
2022/09/17 12:26:52;;;;;;;1.08;0.80;;;;;;;14.29;63.65;97802.50;5122565;28;20174;-95